Hauptseite
METAR-TAF:

METAR-TAF

Flughäfen :

Militärflugplatz Saint-Dizier-Robinson

Saint-Dizier, Frankreich

Breite: 48-38N, Länge: 004-54E, Höhe: 139 m

Beobachtung

Neuester Wetterbericht von vor 35 Minuten, um 00:00 UTC
Wind 4 kt aus Ost
Temperatur 6°C
Luftfeuchtigkeit 93%
Luftdruck 1024 hPa
Sichtweite: 6000 m

METAR: LFSI 150000Z AUTO 09004KT 6000 NSC 06/05 Q1024

Zeit: 01:35 (00:35 UTC)

Prognose

Neuester Wetterbericht von vor 4 Stunden und 35 Minuten, um 20:00 UTC
Gültige Prognose vom 14 um 21 UTC bis 15 um 21 UTC
Wind 5 kt aus Ost/Südost
Sichtweite: 8000 m
Durchbrochene Bewölkung in der Höhe von 500 ft
Zeitweise
vom 15 um 03 UTC bis 15 um 09 UTC
Sichtweite: 4000 m
feuchter Dunst
Übergehend zu
vom 15 um 09 UTC bis 15 um 12 UTC
Sichtweite 10 km oder mehr
keine Wolken unter 1500 m und keine Kumulonimbus oder Gewitterwolken

TAF: LFSI 142000Z 1421/1521 12005KT 8000 BKN005 TEMPO 1503/1509 4000 BR BECMG 1509/1512 CAVOK

Wetterbeobachtungen und Prognosen von mehr als 4000 Flughäfen (METAR und TAF Bericht).

Die verfügbaren Stationen werden durch gelbe und rote Markierungen auf der Karte dargestellt.

Führen Sie die Maus auf sie, um den Namen der Station zu sehen.

Darauf klicken, um die Beobachtung von Wetterbeobachtungen und Prognosen zu sehen.

Um die Karte zu ändern : klicken Sie auf den grünen Tasten mit einem schwarzen Kreuz Zum Vergrößern, auf den grünen Button mit einem Gedankenstrich zu verkleinern, oder auf die grünen Pfeile für benachbarte Karten.


METAR-TAF: